sensor_id;sensor_type;location;lat;lon;timestamp;pressure;altitude;pressure_sealevel;temperature;humidity
54666;BME280;40566;50.006;36.180;2022-08-19T00:00:10;99153.94;;;21.94;61.06
54666;BME280;40566;50.006;36.180;2022-08-19T00:05:16;99171.91;;;21.89;61.46
54666;BME280;40566;50.006;36.180;2022-08-19T00:10:18;99175.38;;;21.89;61.80
54666;BME280;40566;50.006;36.180;2022-08-19T00:15:21;99172.84;;;21.88;61.78
54666;BME280;40566;50.006;36.180;2022-08-19T00:20:22;99180.91;;;21.86;62.16
54666;BME280;40566;50.006;36.180;2022-08-19T00:25:23;99188.94;;;21.85;62.45
54666;BME280;40566;50.006;36.180;2022-08-19T00:30:24;99180.19;;;21.84;62.84
54666;BME280;40566;50.006;36.180;2022-08-19T00:35:24;99181.97;;;21.84;63.13
54666;BME280;40566;50.006;36.180;2022-08-19T00:40:27;99194.19;;;21.85;63.17
54666;BME280;40566;50.006;36.180;2022-08-19T00:45:28;99198.63;;;21.84;63.52
54666;BME280;40566;50.006;36.180;2022-08-19T00:50:31;99194.44;;;21.82;63.59
54666;BME280;40566;50.006;36.180;2022-08-19T00:55:32;99197.06;;;21.82;63.73
54666;BME280;40566;50.006;36.180;2022-08-19T01:00:34;99195.94;;;21.74;64.16
54666;BME280;40566;50.006;36.180;2022-08-19T01:05:39;99204.19;;;21.70;64.45
54666;BME280;40566;50.006;36.180;2022-08-19T01:10:46;99195.47;;;21.69;64.78
54666;BME280;40566;50.006;36.180;2022-08-19T01:16:00;99200.13;;;21.66;64.83
54666;BME280;40566;50.006;36.180;2022-08-19T01:21:08;99194.16;;;21.64;65.12
54666;BME280;40566;50.006;36.180;2022-08-19T01:26:12;99181.50;;;21.57;65.48
54666;BME280;40566;50.006;36.180;2022-08-19T01:31:23;99189.41;;;21.57;65.56
54666;BME280;40566;50.006;36.180;2022-08-19T01:36:45;99191.72;;;21.51;65.70
54666;BME280;40566;50.006;36.180;2022-08-19T01:41:47;99196.88;;;21.41;66.20
54666;BME280;40566;50.006;36.180;2022-08-19T01:46:48;99204.19;;;21.37;66.51
54666;BME280;40566;50.006;36.180;2022-08-19T01:51:49;99192.47;;;21.30;66.39
54666;BME280;40566;50.006;36.180;2022-08-19T01:56:53;99191.75;;;21.28;66.58
54666;BME280;40566;50.006;36.180;2022-08-19T02:01:54;99196.19;;;21.28;66.65
54666;BME280;40566;50.006;36.180;2022-08-19T02:06:57;99179.81;;;21.24;66.70
54666;BME280;40566;50.006;36.180;2022-08-19T02:11:57;99193.94;;;21.23;66.62
54666;BME280;40566;50.006;36.180;2022-08-19T02:16:58;99193.75;;;21.15;66.80
54666;BME280;40566;50.006;36.180;2022-08-19T02:21:59;99186.91;;;21.12;66.82
54666;BME280;40566;50.006;36.180;2022-08-19T02:27:00;99194.91;;;21.11;66.86
54666;BME280;40566;50.006;36.180;2022-08-19T02:32:00;99199.34;;;21.10;66.78
54666;BME280;40566;50.006;36.180;2022-08-19T02:37:01;99213.00;;;21.04;67.12
54666;BME280;40566;50.006;36.180;2022-08-19T02:42:02;99211.78;;;20.97;67.23
54666;BME280;40566;50.006;36.180;2022-08-19T02:47:03;99223.28;;;20.96;67.01
54666;BME280;40566;50.006;36.180;2022-08-19T02:52:04;99227.72;;;20.95;67.10
54666;BME280;40566;50.006;36.180;2022-08-19T02:57:05;99232.84;;;20.97;67.17
54666;BME280;40566;50.006;36.180;2022-08-19T03:02:06;99213.25;;;20.90;66.99
54666;BME280;40566;50.006;36.180;2022-08-19T03:07:07;99214.47;;;20.86;67.21
54666;BME280;40566;50.006;36.180;2022-08-19T03:12:09;99221.25;;;20.88;66.91
54666;BME280;40566;50.006;36.180;2022-08-19T03:17:10;99239.19;;;20.83;66.92
54666;BME280;40566;50.006;36.180;2022-08-19T03:22:11;99238.59;;;20.79;66.88
54666;BME280;40566;50.006;36.180;2022-08-19T03:27:11;99250.56;;;20.84;66.50
54666;BME280;40566;50.006;36.180;2022-08-19T03:32:12;99263.94;;;20.80;66.58
54666;BME280;40566;50.006;36.180;2022-08-19T03:37:13;99264.03;;;20.79;66.37
54666;BME280;40566;50.006;36.180;2022-08-19T03:42:13;99267.63;;;20.78;65.93
54666;BME280;40566;50.006;36.180;2022-08-19T03:47:15;99268.59;;;20.77;65.96
54666;BME280;40566;50.006;36.180;2022-08-19T03:52:17;99265.94;;;20.77;65.90
54666;BME280;40566;50.006;36.180;2022-08-19T03:57:17;99266.81;;;20.77;65.73
54666;BME280;40566;50.006;36.180;2022-08-19T04:02:18;99268.81;;;20.85;65.33
54666;BME280;40566;50.006;36.180;2022-08-19T04:07:18;99269.56;;;20.76;65.61
54666;BME280;40566;50.006;36.180;2022-08-19T04:12:21;99278.28;;;20.76;65.35
54666;BME280;40566;50.006;36.180;2022-08-19T04:17:22;99273.13;;;20.75;65.45
54666;BME280;40566;50.006;36.180;2022-08-19T04:22:22;99273.38;;;20.72;65.28
54666;BME280;40566;50.006;36.180;2022-08-19T04:27:23;99282.44;;;20.79;65.21
54666;BME280;40566;50.006;36.180;2022-08-19T04:32:23;99283.03;;;20.83;64.80
54666;BME280;40566;50.006;36.180;2022-08-19T04:37:25;99281.84;;;20.87;64.80
54666;BME280;40566;50.006;36.180;2022-08-19T04:42:26;99278.72;;;20.93;64.55
54666;BME280;40566;50.006;36.180;2022-08-19T04:47:41;99272.03;;;21.00;64.20
54666;BME280;40566;50.006;36.180;2022-08-19T04:52:42;99277.66;;;21.07;64.17
54666;BME280;40566;50.006;36.180;2022-08-19T04:57:43;99278.75;;;21.04;64.16
54666;BME280;40566;50.006;36.180;2022-08-19T05:02:43;99282.56;;;21.11;63.73
54666;BME280;40566;50.006;36.180;2022-08-19T05:07:44;99288.06;;;21.19;63.83
54666;BME280;40566;50.006;36.180;2022-08-19T05:12:44;99306.56;;;21.29;63.38
54666;BME280;40566;50.006;36.180;2022-08-19T05:17:45;99297.09;;;21.38;63.21
54666;BME280;40566;50.006;36.180;2022-08-19T05:23:06;99300.84;;;21.47;63.03
54666;BME280;40566;50.006;36.180;2022-08-19T05:28:07;99307.16;;;21.55;62.72
54666;BME280;40566;50.006;36.180;2022-08-19T05:33:07;99313.72;;;21.61;62.49
54666;BME280;40566;50.006;36.180;2022-08-19T05:38:10;99307.81;;;21.69;62.32
54666;BME280;40566;50.006;36.180;2022-08-19T05:43:11;99302.97;;;21.85;62.19
54666;BME280;40566;50.006;36.180;2022-08-19T05:48:12;99298.09;;;22.02;61.88
54666;BME280;40566;50.006;36.180;2022-08-19T05:53:13;99301.69;;;22.12;61.55
54666;BME280;40566;50.006;36.180;2022-08-19T05:58:16;99315.56;;;22.14;61.59
54666;BME280;40566;50.006;36.180;2022-08-19T06:03:17;99315.63;;;22.24;61.59
54666;BME280;40566;50.006;36.180;2022-08-19T06:08:19;99306.53;;;22.28;61.36
54666;BME280;40566;50.006;36.180;2022-08-19T06:13:19;99304.22;;;22.34;61.10
54666;BME280;40566;50.006;36.180;2022-08-19T06:18:20;99302.03;;;22.40;61.03
54666;BME280;40566;50.006;36.180;2022-08-19T06:23:21;99311.94;;;22.47;60.80
54666;BME280;40566;50.006;36.180;2022-08-19T06:28:22;99320.97;;;22.54;60.70
54666;BME280;40566;50.006;36.180;2022-08-19T06:33:24;99310.31;;;22.56;60.70
54666;BME280;40566;50.006;36.180;2022-08-19T06:38:24;99319.56;;;22.71;60.33
54666;BME280;40566;50.006;36.180;2022-08-19T06:43:25;99321.09;;;22.74;60.31
54666;BME280;40566;50.006;36.180;2022-08-19T06:48:25;99327.94;;;22.86;60.08
54666;BME280;40566;50.006;36.180;2022-08-19T06:53:26;99322.78;;;23.06;59.79
54666;BME280;40566;50.006;36.180;2022-08-19T06:58:29;99321.72;;;23.18;59.31
54666;BME280;40566;50.006;36.180;2022-08-19T07:03:33;99325.50;;;23.25;59.33
54666;BME280;40566;50.006;36.180;2022-08-19T07:08:35;99332.34;;;23.38;59.11
54666;BME280;40566;50.006;36.180;2022-08-19T07:13:37;99333.06;;;23.49;59.00
54666;BME280;40566;50.006;36.180;2022-08-19T07:18:39;99344.78;;;23.66;58.74
54666;BME280;40566;50.006;36.180;2022-08-19T07:23:40;99341.06;;;23.79;58.56
54666;BME280;40566;50.006;36.180;2022-08-19T07:28:41;99340.81;;;23.82;58.61
54666;BME280;40566;50.006;36.180;2022-08-19T07:33:43;99349.56;;;23.92;58.37
54666;BME280;40566;50.006;36.180;2022-08-19T07:38:46;99339.97;;;24.01;58.23
54666;BME280;40566;50.006;36.180;2022-08-19T07:43:48;99345.81;;;24.04;58.04
54666;BME280;40566;50.006;36.180;2022-08-19T07:48:50;99350.78;;;24.37;57.39
54666;BME280;40566;50.006;36.180;2022-08-19T07:53:51;99353.88;;;24.51;57.17
54666;BME280;40566;50.006;36.180;2022-08-19T07:58:52;99353.41;;;24.76;56.83
54666;BME280;40566;50.006;36.180;2022-08-19T08:03:55;99351.94;;;25.01;56.11
54666;BME280;40566;50.006;36.180;2022-08-19T08:09:19;99358.22;;;25.37;55.45
54666;BME280;40566;50.006;36.180;2022-08-19T08:14:29;99365.59;;;25.33;55.35
54666;BME280;40566;50.006;36.180;2022-08-19T08:19:30;99367.53;;;25.41;55.59
54666;BME280;40566;50.006;36.180;2022-08-19T08:24:31;99385.31;;;25.49;55.47
54666;BME280;40566;50.006;36.180;2022-08-19T08:29:31;99382.03;;;25.37;55.44
54666;BME280;40566;50.006;36.180;2022-08-19T08:34:33;99372.50;;;25.17;56.03
54666;BME280;40566;50.006;36.180;2022-08-19T08:39:34;99374.44;;;25.14;55.97
54666;BME280;40566;50.006;36.180;2022-08-19T08:44:51;99367.56;;;25.31;55.63
54666;BME280;40566;50.006;36.180;2022-08-19T08:49:59;99386.28;;;25.20;55.79
54666;BME280;40566;50.006;36.180;2022-08-19T08:55:08;99381.94;;;25.19;56.07
54666;BME280;40566;50.006;36.180;2022-08-19T09:00:17;99383.66;;;25.10;56.01
54666;BME280;40566;50.006;36.180;2022-08-19T09:05:19;99377.53;;;25.10;56.17
54666;BME280;40566;50.006;36.180;2022-08-19T09:10:23;99377.41;;;25.02;56.37
54666;BME280;40566;50.006;36.180;2022-08-19T09:15:47;99370.75;;;24.98;56.37
54666;BME280;40566;50.006;36.180;2022-08-19T09:20:48;99381.69;;;25.22;55.54
54666;BME280;40566;50.006;36.180;2022-08-19T09:25:49;99385.03;;;25.52;55.54
54666;BME280;40566;50.006;36.180;2022-08-19T09:30:51;99379.25;;;25.84;54.92
54666;BME280;40566;50.006;36.180;2022-08-19T09:36:02;99363.03;;;25.97;54.66
54666;BME280;40566;50.006;36.180;2022-08-19T09:41:05;99370.31;;;26.13;54.05
54666;BME280;40566;50.006;36.180;2022-08-19T09:46:07;99377.09;;;26.34;54.25
54666;BME280;40566;50.006;36.180;2022-08-19T09:51:12;99365.97;;;26.30;53.92
54666;BME280;40566;50.006;36.180;2022-08-19T09:56:16;99373.25;;;26.28;54.22
54666;BME280;40566;50.006;36.180;2022-08-19T10:01:24;99378.06;;;26.50;53.92
54666;BME280;40566;50.006;36.180;2022-08-19T10:06:28;99374.88;;;26.65;53.80
54666;BME280;40566;50.006;36.180;2022-08-19T10:11:32;99387.22;;;26.74;53.22
54666;BME280;40566;50.006;36.180;2022-08-19T10:16:35;99383.56;;;26.75;53.27
54666;BME280;40566;50.006;36.180;2022-08-19T10:21:36;99373.50;;;26.79;53.34
54666;BME280;40566;50.006;36.180;2022-08-19T10:26:39;99375.88;;;26.90;53.54
54666;BME280;40566;50.006;36.180;2022-08-19T10:31:42;99373.50;;;27.13;52.36
54666;BME280;40566;50.006;36.180;2022-08-19T10:36:42;99374.00;;;27.43;51.97
54666;BME280;40566;50.006;36.180;2022-08-19T10:41:43;99384.56;;;27.77;51.60
54666;BME280;40566;50.006;36.180;2022-08-19T10:46:44;99377.47;;;27.94;51.43
54666;BME280;40566;50.006;36.180;2022-08-19T10:51:47;99381.50;;;27.98;50.83
54666;BME280;40566;50.006;36.180;2022-08-19T10:57:06;99371.28;;;27.77;51.84
54666;BME280;40566;50.006;36.180;2022-08-19T11:02:10;99359.63;;;27.78;52.09
54666;BME280;40566;50.006;36.180;2022-08-19T11:07:11;99360.94;;;27.58;52.43
54666;BME280;40566;50.006;36.180;2022-08-19T11:12:12;99362.22;;;27.37;52.58
54666;BME280;40566;50.006;36.180;2022-08-19T11:17:13;99354.44;;;27.60;52.04
54666;BME280;40566;50.006;36.180;2022-08-19T11:22:14;99362.78;;;27.74;52.04
54666;BME280;40566;50.006;36.180;2022-08-19T11:27:14;99347.09;;;27.97;51.29
54666;BME280;40566;50.006;36.180;2022-08-19T11:32:15;99355.72;;;28.15;50.74
54666;BME280;40566;50.006;36.180;2022-08-19T11:37:16;99359.88;;;28.01;51.17
54666;BME280;40566;50.006;36.180;2022-08-19T11:42:17;99345.22;;;27.81;51.65
54666;BME280;40566;50.006;36.180;2022-08-19T11:47:36;99344.19;;;27.65;51.85
54666;BME280;40566;50.006;36.180;2022-08-19T11:52:40;99336.38;;;27.80;51.67
54666;BME280;40566;50.006;36.180;2022-08-19T11:57:41;99344.94;;;28.25;51.36
54666;BME280;40566;50.006;36.180;2022-08-19T12:02:42;99334.13;;;28.35;50.80
54666;BME280;40566;50.006;36.180;2022-08-19T12:07:43;99344.25;;;28.31;50.96
54666;BME280;40566;50.006;36.180;2022-08-19T12:12:44;99346.09;;;28.55;50.48
54666;BME280;40566;50.006;36.180;2022-08-19T12:17:46;99334.63;;;28.55;50.15
54666;BME280;40566;50.006;36.180;2022-08-19T12:22:47;99330.66;;;28.51;50.28
54666;BME280;40566;50.006;36.180;2022-08-19T12:27:48;99318.00;;;28.36;50.74
54666;BME280;40566;50.006;36.180;2022-08-19T12:32:50;99310.69;;;28.30;50.91
54666;BME280;40566;50.006;36.180;2022-08-19T12:37:51;99309.53;;;28.33;50.39
54666;BME280;40566;50.006;36.180;2022-08-19T12:42:53;99308.66;;;28.65;49.92
54666;BME280;40566;50.006;36.180;2022-08-19T12:47:53;99302.56;;;28.96;49.54
54666;BME280;40566;50.006;36.180;2022-08-19T12:52:54;99308.59;;;28.90;49.37
54666;BME280;40566;50.006;36.180;2022-08-19T12:57:55;99313.09;;;28.81;49.33
54666;BME280;40566;50.006;36.180;2022-08-19T13:02:56;99307.34;;;28.53;49.79
54666;BME280;40566;50.006;36.180;2022-08-19T13:07:58;99313.03;;;28.17;50.56
54666;BME280;40566;50.006;36.180;2022-08-19T13:13:00;99319.16;;;28.01;50.53
54666;BME280;40566;50.006;36.180;2022-08-19T13:18:02;99329.47;;;28.04;50.47
54666;BME280;40566;50.006;36.180;2022-08-19T13:23:03;99334.78;;;28.04;50.23
54666;BME280;40566;50.006;36.180;2022-08-19T13:28:04;99339.78;;;27.99;50.61
54666;BME280;40566;50.006;36.180;2022-08-19T13:33:07;99347.91;;;27.97;50.42
54666;BME280;40566;50.006;36.180;2022-08-19T13:38:11;99343.41;;;27.98;50.73
54666;BME280;40566;50.006;36.180;2022-08-19T13:43:13;99337.25;;;27.81;50.71
54666;BME280;40566;50.006;36.180;2022-08-19T13:48:14;99333.03;;;27.62;51.21
54666;BME280;40566;50.006;36.180;2022-08-19T13:53:16;99330.81;;;27.41;51.50
54666;BME280;40566;50.006;36.180;2022-08-19T13:58:17;99332.63;;;27.32;51.68
54666;BME280;40566;50.006;36.180;2022-08-19T14:03:18;99335.25;;;27.24;52.03
54666;BME280;40566;50.006;36.180;2022-08-19T14:08:19;99350.13;;;27.17;52.30
54666;BME280;40566;50.006;36.180;2022-08-19T14:13:21;99338.66;;;27.08;52.33
54666;BME280;40566;50.006;36.180;2022-08-19T14:18:22;99341.94;;;27.02;52.27
54666;BME280;40566;50.006;36.180;2022-08-19T14:23:25;99360.03;;;27.06;52.29
54666;BME280;40566;50.006;36.180;2022-08-19T14:28:25;99360.66;;;27.00;52.42
54666;BME280;40566;50.006;36.180;2022-08-19T14:33:26;99372.84;;;26.85;52.63
54666;BME280;40566;50.006;36.180;2022-08-19T14:38:27;99376.09;;;26.70;53.25
54666;BME280;40566;50.006;36.180;2022-08-19T14:43:31;99390.59;;;26.58;53.50
54666;BME280;40566;50.006;36.180;2022-08-19T14:48:32;99400.28;;;26.49;53.84
54666;BME280;40566;50.006;36.180;2022-08-19T14:53:33;99394.75;;;26.43;53.90
54666;BME280;40566;50.006;36.180;2022-08-19T14:58:34;99381.25;;;26.36;53.87
54666;BME280;40566;50.006;36.180;2022-08-19T15:03:35;99391.78;;;26.28;53.98
54666;BME280;40566;50.006;36.180;2022-08-19T15:08:37;99379.97;;;26.22;54.33
54666;BME280;40566;50.006;36.180;2022-08-19T15:13:39;99379.91;;;26.14;53.96
54666;BME280;40566;50.006;36.180;2022-08-19T15:18:40;99378.00;;;26.06;54.26
54666;BME280;40566;50.006;36.180;2022-08-19T15:23:45;99376.44;;;25.96;54.28
54666;BME280;40566;50.006;36.180;2022-08-19T15:28:48;99380.25;;;25.83;54.21
54666;BME280;40566;50.006;36.180;2022-08-19T15:33:49;99390.06;;;25.73;54.66
54666;BME280;40566;50.006;36.180;2022-08-19T15:38:49;99381.88;;;25.66;54.43
54666;BME280;40566;50.006;36.180;2022-08-19T15:44:02;99374.53;;;25.60;54.57
54666;BME280;40566;50.006;36.180;2022-08-19T15:49:04;99390.63;;;25.49;54.80
54666;BME280;40566;50.006;36.180;2022-08-19T15:54:07;99388.56;;;25.43;55.08
54666;BME280;40566;50.006;36.180;2022-08-19T15:59:08;99406.19;;;25.34;55.32
54666;BME280;40566;50.006;36.180;2022-08-19T16:04:27;99413.84;;;25.27;55.18
54666;BME280;40566;50.006;36.180;2022-08-19T16:09:47;99418.75;;;25.22;55.43
54666;BME280;40566;50.006;36.180;2022-08-19T16:14:47;99426.72;;;25.12;55.35
54666;BME280;40566;50.006;36.180;2022-08-19T16:19:49;99446.63;;;25.07;55.48
54666;BME280;40566;50.006;36.180;2022-08-19T16:24:50;99449.03;;;25.00;55.68
54666;BME280;40566;50.006;36.180;2022-08-19T16:29:50;99453.06;;;24.94;55.68
54666;BME280;40566;50.006;36.180;2022-08-19T16:34:51;99454.63;;;24.87;55.99
54666;BME280;40566;50.006;36.180;2022-08-19T16:39:52;99456.13;;;24.80;56.18
54666;BME280;40566;50.006;36.180;2022-08-19T16:44:53;99443.47;;;24.74;56.31
54666;BME280;40566;50.006;36.180;2022-08-19T16:49:54;99450.03;;;24.60;56.45
54666;BME280;40566;50.006;36.180;2022-08-19T16:54:54;99456.44;;;24.58;56.81
54666;BME280;40566;50.006;36.180;2022-08-19T16:59:55;99461.19;;;24.54;56.82
54666;BME280;40566;50.006;36.180;2022-08-19T17:04:56;99476.63;;;24.49;56.80
54666;BME280;40566;50.006;36.180;2022-08-19T17:09:56;99475.22;;;24.45;57.31
54666;BME280;40566;50.006;36.180;2022-08-19T17:14:57;99484.38;;;24.41;57.38
54666;BME280;40566;50.006;36.180;2022-08-19T17:19:59;99482.59;;;24.41;57.89
54666;BME280;40566;50.006;36.180;2022-08-19T17:25:02;99479.50;;;24.36;58.29
54666;BME280;40566;50.006;36.180;2022-08-19T17:30:04;99499.25;;;24.32;58.43
54666;BME280;40566;50.006;36.180;2022-08-19T17:35:06;99527.50;;;24.22;59.03
54666;BME280;40566;50.006;36.180;2022-08-19T17:40:09;99527.19;;;24.15;59.08
54666;BME280;40566;50.006;36.180;2022-08-19T17:45:11;99542.19;;;24.05;59.39
54666;BME280;40566;50.006;36.180;2022-08-19T17:50:12;99554.41;;;23.96;59.44
54666;BME280;40566;50.006;36.180;2022-08-19T17:55:12;99548.25;;;23.86;59.72
54666;BME280;40566;50.006;36.180;2022-08-19T18:00:15;99550.94;;;23.74;60.02
54666;BME280;40566;50.006;36.180;2022-08-19T18:05:18;99559.50;;;23.67;60.17
54666;BME280;40566;50.006;36.180;2022-08-19T18:10:20;99570.03;;;23.57;60.10
54666;BME280;40566;50.006;36.180;2022-08-19T18:15:23;99573.31;;;23.49;59.94
54666;BME280;40566;50.006;36.180;2022-08-19T18:20:25;99581.81;;;23.53;60.04
54666;BME280;40566;50.006;36.180;2022-08-19T18:25:26;99583.03;;;23.49;60.21
54666;BME280;40566;50.006;36.180;2022-08-19T18:30:28;99568.56;;;23.43;60.17
54666;BME280;40566;50.006;36.180;2022-08-19T18:35:33;99556.97;;;23.34;60.18
54666;BME280;40566;50.006;36.180;2022-08-19T18:40:37;99563.84;;;23.26;60.61
54666;BME280;40566;50.006;36.180;2022-08-19T18:45:56;99572.03;;;23.23;60.79
54666;BME280;40566;50.006;36.180;2022-08-19T18:51:16;99571.69;;;23.16;60.92
54666;BME280;40566;50.006;36.180;2022-08-19T18:56:18;99566.81;;;23.11;61.07
54666;BME280;40566;50.006;36.180;2022-08-19T19:01:29;99563.94;;;23.14;60.96
54666;BME280;40566;50.006;36.180;2022-08-19T19:06:34;99566.19;;;23.19;61.19
54666;BME280;40566;50.006;36.180;2022-08-19T19:11:40;99565.47;;;23.17;61.49
54666;BME280;40566;50.006;36.180;2022-08-19T19:16:43;99567.69;;;23.01;61.93
54666;BME280;40566;50.006;36.180;2022-08-19T19:21:47;99570.34;;;22.89;62.47
54666;BME280;40566;50.006;36.180;2022-08-19T19:26:50;99574.22;;;22.85;62.74
54666;BME280;40566;50.006;36.180;2022-08-19T19:31:51;99588.63;;;22.81;62.93
54666;BME280;40566;50.006;36.180;2022-08-19T19:36:53;99569.09;;;22.72;63.31
54666;BME280;40566;50.006;36.180;2022-08-19T19:41:53;99572.00;;;22.69;63.59
54666;BME280;40566;50.006;36.180;2022-08-19T19:46:54;99565.41;;;22.64;63.80
54666;BME280;40566;50.006;36.180;2022-08-19T19:51:57;99544.47;;;22.51;64.13
54666;BME280;40566;50.006;36.180;2022-08-19T19:56:58;99545.94;;;22.44;64.52
54666;BME280;40566;50.006;36.180;2022-08-19T20:01:58;99557.41;;;22.43;64.69
54666;BME280;40566;50.006;36.180;2022-08-19T20:07:00;99563.53;;;22.43;64.76
54666;BME280;40566;50.006;36.180;2022-08-19T20:12:01;99570.72;;;22.41;64.92
54666;BME280;40566;50.006;36.180;2022-08-19T20:17:01;99584.88;;;22.40;64.94
54666;BME280;40566;50.006;36.180;2022-08-19T20:22:04;99579.59;;;22.40;65.04
54666;BME280;40566;50.006;36.180;2022-08-19T20:27:05;99593.88;;;22.37;65.35
54666;BME280;40566;50.006;36.180;2022-08-19T20:32:09;99589.16;;;22.41;65.32
54666;BME280;40566;50.006;36.180;2022-08-19T20:37:10;99605.34;;;22.36;65.56
54666;BME280;40566;50.006;36.180;2022-08-19T20:42:10;99602.38;;;22.30;65.64
54666;BME280;40566;50.006;36.180;2022-08-19T20:47:11;99607.50;;;22.31;65.77
54666;BME280;40566;50.006;36.180;2022-08-19T20:52:11;99604.16;;;22.29;65.90
54666;BME280;40566;50.006;36.180;2022-08-19T20:57:13;99594.47;;;22.30;66.01
54666;BME280;40566;50.006;36.180;2022-08-19T21:02:13;99591.34;;;22.25;65.93
54666;BME280;40566;50.006;36.180;2022-08-19T21:07:15;99592.06;;;22.27;66.19
54666;BME280;40566;50.006;36.180;2022-08-19T21:12:16;99589.66;;;22.24;66.20
54666;BME280;40566;50.006;36.180;2022-08-19T21:17:17;99587.25;;;22.21;66.17
54666;BME280;40566;50.006;36.180;2022-08-19T21:22:17;99589.06;;;22.20;66.28
54666;BME280;40566;50.006;36.180;2022-08-19T21:27:18;99595.66;;;22.14;66.53
54666;BME280;40566;50.006;36.180;2022-08-19T21:32:19;99595.03;;;22.11;66.59
54666;BME280;40566;50.006;36.180;2022-08-19T21:37:20;99596.34;;;22.05;66.63
54666;BME280;40566;50.006;36.180;2022-08-19T21:42:22;99584.38;;;22.01;66.46
54666;BME280;40566;50.006;36.180;2022-08-19T21:47:23;99591.22;;;21.92;66.47
54666;BME280;40566;50.006;36.180;2022-08-19T21:52:25;99584.03;;;21.83;66.16
54666;BME280;40566;50.006;36.180;2022-08-19T21:57:26;99594.31;;;21.75;65.93
54666;BME280;40566;50.006;36.180;2022-08-19T22:02:27;99592.16;;;21.69;65.86
54666;BME280;40566;50.006;36.180;2022-08-19T22:07:27;99603.00;;;21.64;65.91
54666;BME280;40566;50.006;36.180;2022-08-19T22:12:31;99591.19;;;21.58;65.28
54666;BME280;40566;50.006;36.180;2022-08-19T22:17:34;99602.75;;;21.56;65.46
54666;BME280;40566;50.006;36.180;2022-08-19T22:22:36;99598.47;;;21.55;65.15
54666;BME280;40566;50.006;36.180;2022-08-19T22:27:37;99612.09;;;21.49;65.16
54666;BME280;40566;50.006;36.180;2022-08-19T22:32:42;99614.66;;;21.37;65.43
54666;BME280;40566;50.006;36.180;2022-08-19T22:37:44;99616.06;;;21.30;65.28
54666;BME280;40566;50.006;36.180;2022-08-19T22:42:45;99619.16;;;21.24;65.49
54666;BME280;40566;50.006;36.180;2022-08-19T22:47:46;99618.66;;;21.19;65.71
54666;BME280;40566;50.006;36.180;2022-08-19T22:52:47;99620.69;;;21.15;65.44
54666;BME280;40566;50.006;36.180;2022-08-19T22:57:47;99625.22;;;21.13;65.27
54666;BME280;40566;50.006;36.180;2022-08-19T23:02:48;99614.28;;;21.07;65.10
54666;BME280;40566;50.006;36.180;2022-08-19T23:07:49;99607.56;;;21.03;65.34
54666;BME280;40566;50.006;36.180;2022-08-19T23:12:50;99609.94;;;20.94;65.22
54666;BME280;40566;50.006;36.180;2022-08-19T23:17:53;99602.16;;;20.93;65.15
54666;BME280;40566;50.006;36.180;2022-08-19T23:22:54;99616.47;;;20.89;65.02
54666;BME280;40566;50.006;36.180;2022-08-19T23:27:55;99620.63;;;20.80;65.09
54666;BME280;40566;50.006;36.180;2022-08-19T23:38:21;99630.97;;;20.70;65.46
54666;BME280;40566;50.006;36.180;2022-08-19T23:43:23;99627.72;;;20.67;65.34
54666;BME280;40566;50.006;36.180;2022-08-19T23:48:26;99628.78;;;20.64;65.22
54666;BME280;40566;50.006;36.180;2022-08-19T23:53:28;99621.84;;;20.63;64.99
54666;BME280;40566;50.006;36.180;2022-08-19T23:58:29;99638.47;;;20.64;65.06
